sensor_id;sensor_type;location;lat;lon;timestamp;pressure;altitude;pressure_sealevel;temperature;humidity
56270;BME280;42176;43.240;27.880;2023-02-27T00:00:11;99779.75;;;15.05;62.88
56270;BME280;42176;43.240;27.880;2023-02-27T00:02:40;99777.31;;;15.01;62.85
56270;BME280;42176;43.240;27.880;2023-02-27T00:05:06;99787.09;;;15.00;63.33
56270;BME280;42176;43.240;27.880;2023-02-27T00:07:31;99804.84;;;15.01;63.13
56270;BME280;42176;43.240;27.880;2023-02-27T00:09:57;99773.84;;;14.99;63.02
56270;BME280;42176;43.240;27.880;2023-02-27T00:12:23;99776.44;;;15.00;63.02
56270;BME280;42176;43.240;27.880;2023-02-27T00:14:48;99776.28;;;15.03;62.64
56270;BME280;42176;43.240;27.880;2023-02-27T00:17:15;99786.97;;;15.03;62.72
56270;BME280;42176;43.240;27.880;2023-02-27T00:19:40;99792.19;;;15.06;62.69
56270;BME280;42176;43.240;27.880;2023-02-27T00:22:06;99812.59;;;15.07;62.67
56270;BME280;42176;43.240;27.880;2023-02-27T00:24:31;99808.06;;;15.10;62.65
56270;BME280;42176;43.240;27.880;2023-02-27T00:26:57;99811.34;;;15.15;62.32
56270;BME280;42176;43.240;27.880;2023-02-27T00:29:22;99813.22;;;15.13;62.51
56270;BME280;42176;43.240;27.880;2023-02-27T00:31:48;99785.09;;;15.05;62.53
56270;BME280;42176;43.240;27.880;2023-02-27T00:34:13;99793.75;;;15.11;62.59
56270;BME280;42176;43.240;27.880;2023-02-27T00:36:40;99787.69;;;15.07;62.52
56270;BME280;42176;43.240;27.880;2023-02-27T00:39:05;99795.34;;;15.15;62.52
56270;BME280;42176;43.240;27.880;2023-02-27T00:41:31;99788.13;;;15.17;62.17
56270;BME280;42176;43.240;27.880;2023-02-27T00:43:56;99790.66;;;15.20;62.32
56270;BME280;42176;43.240;27.880;2023-02-27T00:46:22;99783.72;;;15.16;62.24
56270;BME280;42176;43.240;27.880;2023-02-27T00:48:47;99796.94;;;15.19;62.20
56270;BME280;42176;43.240;27.880;2023-02-27T00:51:12;99801.69;;;15.12;62.33
56270;BME280;42176;43.240;27.880;2023-02-27T00:53:38;99806.81;;;15.17;62.53
56270;BME280;42176;43.240;27.880;2023-02-27T00:56:03;99797.38;;;15.10;62.66
56270;BME280;42176;43.240;27.880;2023-02-27T00:58:29;99799.25;;;15.07;62.76
56270;BME280;42176;43.240;27.880;2023-02-27T01:00:54;99797.38;;;15.10;62.89
56270;BME280;42176;43.240;27.880;2023-02-27T01:03:20;99805.22;;;15.13;62.81
56270;BME280;42176;43.240;27.880;2023-02-27T01:05:45;99795.91;;;15.02;63.04
56270;BME280;42176;43.240;27.880;2023-02-27T01:08:11;99800.53;;;14.99;63.24
56270;BME280;42176;43.240;27.880;2023-02-27T01:10:36;99809.25;;;15.02;63.51
56270;BME280;42176;43.240;27.880;2023-02-27T01:13:02;99819.00;;;15.03;63.48
56270;BME280;42176;43.240;27.880;2023-02-27T01:15:27;99810.28;;;15.00;63.58
56270;BME280;42176;43.240;27.880;2023-02-27T01:17:53;99829.53;;;15.06;63.53
56270;BME280;42176;43.240;27.880;2023-02-27T01:20:18;99830.69;;;15.01;63.39
56270;BME280;42176;43.240;27.880;2023-02-27T01:22:44;99842.09;;;15.04;63.29
56270;BME280;42176;43.240;27.880;2023-02-27T01:25:09;99838.75;;;14.99;63.58
56270;BME280;42176;43.240;27.880;2023-02-27T01:27:35;99844.75;;;15.04;63.64
56270;BME280;42176;43.240;27.880;2023-02-27T01:30:01;99847.44;;;15.04;63.32
56270;BME280;42176;43.240;27.880;2023-02-27T01:32:26;99856.50;;;15.00;63.56
56270;BME280;42176;43.240;27.880;2023-02-27T01:34:52;99856.25;;;15.06;63.27
56270;BME280;42176;43.240;27.880;2023-02-27T01:37:17;99829.31;;;14.92;63.20
56270;BME280;42176;43.240;27.880;2023-02-27T01:39:43;99843.09;;;15.02;63.38
56270;BME280;42176;43.240;27.880;2023-02-27T01:42:20;99850.94;;;15.05;63.31
56270;BME280;42176;43.240;27.880;2023-02-27T01:45:19;99837.03;;;14.98;63.46
56270;BME280;42176;43.240;27.880;2023-02-27T01:47:50;99858.25;;;15.01;63.13
56270;BME280;42176;43.240;27.880;2023-02-27T01:50:17;99868.91;;;15.01;63.32
56270;BME280;42176;43.240;27.880;2023-02-27T01:52:45;99863.72;;;14.98;63.34
56270;BME280;42176;43.240;27.880;2023-02-27T01:55:14;99868.19;;;14.98;63.43
56270;BME280;42176;43.240;27.880;2023-02-27T01:57:40;99869.97;;;14.97;63.86
56270;BME280;42176;43.240;27.880;2023-02-27T02:00:07;99861.13;;;14.97;63.62
56270;BME280;42176;43.240;27.880;2023-02-27T02:02:36;99870.78;;;14.99;63.67
56270;BME280;42176;43.240;27.880;2023-02-27T02:05:04;99854.19;;;14.92;63.83
56270;BME280;42176;43.240;27.880;2023-02-27T02:07:31;99872.81;;;14.94;64.19
56270;BME280;42176;43.240;27.880;2023-02-27T02:09:59;99853.16;;;14.95;64.13
56270;BME280;42176;43.240;27.880;2023-02-27T02:12:32;99859.31;;;14.97;64.00
56270;BME280;42176;43.240;27.880;2023-02-27T02:14:58;99869.03;;;14.98;64.13
56270;BME280;42176;43.240;27.880;2023-02-27T02:24:04;99864.13;;;14.89;64.92
56270;BME280;42176;43.240;27.880;2023-02-27T02:26:40;99871.19;;;14.90;65.09
56270;BME280;42176;43.240;27.880;2023-02-27T02:42:33;99877.72;;;14.83;65.85
56270;BME280;42176;43.240;27.880;2023-02-27T02:48:20;99861.34;;;14.71;66.01
56270;BME280;42176;43.240;27.880;2023-02-27T02:53:50;99881.75;;;14.72;66.56
56270;BME280;42176;43.240;27.880;2023-02-27T02:56:24;99872.00;;;14.71;66.41
56270;BME280;42176;43.240;27.880;2023-02-27T03:01:29;99860.78;;;14.63;66.76
56270;BME280;42176;43.240;27.880;2023-02-27T03:04:02;99863.56;;;14.60;67.06
56270;BME280;42176;43.240;27.880;2023-02-27T03:06:37;99873.97;;;14.66;67.23
56270;BME280;42176;43.240;27.880;2023-02-27T03:09:11;99870.34;;;14.67;67.25
56270;BME280;42176;43.240;27.880;2023-02-27T03:11:40;99879.28;;;14.66;67.17
56270;BME280;42176;43.240;27.880;2023-02-27T03:14:13;99868.53;;;14.69;67.18
56270;BME280;42176;43.240;27.880;2023-02-27T03:16:42;99869.63;;;14.64;67.31
56270;BME280;42176;43.240;27.880;2023-02-27T03:19:16;99873.97;;;14.66;67.50
56270;BME280;42176;43.240;27.880;2023-02-27T03:21:53;99870.56;;;14.62;67.57
56270;BME280;42176;43.240;27.880;2023-02-27T03:24:31;99877.75;;;14.60;67.81
56270;BME280;42176;43.240;27.880;2023-02-27T03:26:58;99877.84;;;14.59;67.86
56270;BME280;42176;43.240;27.880;2023-02-27T03:29:54;99869.03;;;14.57;68.03
56270;BME280;42176;43.240;27.880;2023-02-27T03:35:07;99878.09;;;14.53;68.26
56270;BME280;42176;43.240;27.880;2023-02-27T03:38:08;99856.69;;;14.34;68.51
56270;BME280;42176;43.240;27.880;2023-02-27T03:40:57;99878.38;;;14.46;68.64
56270;BME280;42176;43.240;27.880;2023-02-27T03:46:21;99871.31;;;14.45;68.66
56270;BME280;42176;43.240;27.880;2023-02-27T03:48:47;99856.75;;;14.53;68.05
56270;BME280;42176;43.240;27.880;2023-02-27T03:51:25;99855.81;;;14.54;67.80
56270;BME280;42176;43.240;27.880;2023-02-27T03:56:28;99862.22;;;14.50;67.87
56270;BME280;42176;43.240;27.880;2023-02-27T03:58:55;99862.50;;;14.43;68.03
56270;BME280;42176;43.240;27.880;2023-02-27T04:01:22;99858.53;;;14.31;67.95
56270;BME280;42176;43.240;27.880;2023-02-27T04:03:56;99870.09;;;14.32;67.92
56270;BME280;42176;43.240;27.880;2023-02-27T04:06:23;99872.78;;;14.30;68.02
56270;BME280;42176;43.240;27.880;2023-02-27T04:09:27;99861.41;;;14.27;67.78
56270;BME280;42176;43.240;27.880;2023-02-27T04:18:09;99865.81;;;14.28;67.26
56270;BME280;42176;43.240;27.880;2023-02-27T04:23:15;99863.03;;;14.31;67.17
56270;BME280;42176;43.240;27.880;2023-02-27T04:25:50;99863.03;;;14.31;66.96
56270;BME280;42176;43.240;27.880;2023-02-27T04:28:29;99849.72;;;14.29;66.67
56270;BME280;42176;43.240;27.880;2023-02-27T04:31:17;99853.31;;;14.28;68.97
56270;BME280;42176;43.240;27.880;2023-02-27T04:34:17;99870.09;;;14.32;66.88
56270;BME280;42176;43.240;27.880;2023-02-27T04:36:49;99877.28;;;14.30;66.84
56270;BME280;42176;43.240;27.880;2023-02-27T04:39:22;99868.59;;;14.25;67.08
56270;BME280;42176;43.240;27.880;2023-02-27T04:44:50;99869.56;;;14.44;66.11
56270;BME280;42176;43.240;27.880;2023-02-27T04:47:20;99880.22;;;14.44;65.82
56270;BME280;42176;43.240;27.880;2023-02-27T04:49:54;99894.63;;;14.40;65.81
56270;BME280;42176;43.240;27.880;2023-02-27T04:52:26;99898.41;;;14.35;66.14
56270;BME280;42176;43.240;27.880;2023-02-27T04:57:46;99918.84;;;14.34;65.95
56270;BME280;42176;43.240;27.880;2023-02-27T05:03:05;99924.38;;;14.52;65.32
56270;BME280;42176;43.240;27.880;2023-02-27T05:05:34;99903.78;;;14.33;65.19
56270;BME280;42176;43.240;27.880;2023-02-27T05:08:27;99935.94;;;14.30;66.11
56270;BME280;42176;43.240;27.880;2023-02-27T05:11:08;99922.03;;;14.22;65.63
56270;BME280;42176;43.240;27.880;2023-02-27T05:13:44;99944.47;;;14.38;65.75
56270;BME280;42176;43.240;27.880;2023-02-27T05:18:43;99954.63;;;14.51;65.53
56270;BME280;42176;43.240;27.880;2023-02-27T05:21:20;99948.94;;;14.60;64.86
56270;BME280;42176;43.240;27.880;2023-02-27T05:29:52;99962.31;;;14.81;63.55
56270;BME280;42176;43.240;27.880;2023-02-27T05:32:25;99955.41;;;14.76;63.81
56270;BME280;42176;43.240;27.880;2023-02-27T05:35:08;99965.78;;;14.83;64.02
56270;BME280;42176;43.240;27.880;2023-02-27T05:37:52;99949.53;;;14.89;63.63
56270;BME280;42176;43.240;27.880;2023-02-27T05:40:28;99959.06;;;14.95;63.25
56270;BME280;42176;43.240;27.880;2023-02-27T05:43:33;99958.22;;;14.94;62.94
56270;BME280;42176;43.240;27.880;2023-02-27T05:46:05;99960.22;;;15.10;62.39
56270;BME280;42176;43.240;27.880;2023-02-27T05:48:58;99965.47;;;15.11;62.01
56270;BME280;42176;43.240;27.880;2023-02-27T05:51:28;99962.59;;;15.16;62.20
56270;BME280;42176;43.240;27.880;2023-02-27T05:54:02;99876.47;;;14.49;62.32
56270;BME280;42176;43.240;27.880;2023-02-27T05:56:32;99974.72;;;14.82;62.97
56270;BME280;42176;43.240;27.880;2023-02-27T05:59:19;99972.88;;;14.84;63.36
56270;BME280;42176;43.240;27.880;2023-02-27T06:01:47;99973.91;;;14.80;63.60
56270;BME280;42176;43.240;27.880;2023-02-27T06:04:13;99974.34;;;14.91;63.74
56270;BME280;42176;43.240;27.880;2023-02-27T06:06:38;99994.44;;;15.00;63.39
56270;BME280;42176;43.240;27.880;2023-02-27T06:09:07;99987.25;;;15.02;62.98
56270;BME280;42176;43.240;27.880;2023-02-27T06:11:32;99988.94;;;15.03;63.42
56270;BME280;42176;43.240;27.880;2023-02-27T06:13:58;99975.22;;;14.91;63.44
56270;BME280;42176;43.240;27.880;2023-02-27T06:16:23;99975.53;;;14.84;63.59
56270;BME280;42176;43.240;27.880;2023-02-27T06:18:48;99979.13;;;14.83;63.74
56270;BME280;42176;43.240;27.880;2023-02-27T06:21:14;99975.13;;;14.72;64.13
56270;BME280;42176;43.240;27.880;2023-02-27T06:23:39;99971.72;;;14.67;64.45
56270;BME280;42176;43.240;27.880;2023-02-27T06:26:05;99983.53;;;14.84;64.12
56270;BME280;42176;43.240;27.880;2023-02-27T06:28:30;99963.94;;;14.85;64.16
56270;BME280;42176;43.240;27.880;2023-02-27T06:30:56;99973.81;;;15.03;64.15
56270;BME280;42176;43.240;27.880;2023-02-27T06:33:23;99976.41;;;15.05;63.85
56270;BME280;42176;43.240;27.880;2023-02-27T06:35:50;99975.56;;;15.04;63.83
56270;BME280;42176;43.240;27.880;2023-02-27T06:38:16;99982.78;;;15.23;63.58
56270;BME280;42176;43.240;27.880;2023-02-27T06:40:41;99993.72;;;15.37;63.26
56270;BME280;42176;43.240;27.880;2023-02-27T06:43:08;99991.69;;;15.43;62.94
56270;BME280;42176;43.240;27.880;2023-02-27T06:45:33;99991.22;;;15.93;61.17
56270;BME280;42176;43.240;27.880;2023-02-27T06:47:59;99993.84;;;16.14;60.40
56270;BME280;42176;43.240;27.880;2023-02-27T06:50:24;99977.91;;;16.30;59.27
56270;BME280;42176;43.240;27.880;2023-02-27T06:52:50;99972.69;;;16.46;58.47
56270;BME280;42176;43.240;27.880;2023-02-27T06:55:15;99990.16;;;16.53;58.01
56270;BME280;42176;43.240;27.880;2023-02-27T06:57:46;99985.47;;;16.76;57.43
56270;BME280;42176;43.240;27.880;2023-02-27T07:00:12;99990.22;;;17.59;55.22
56270;BME280;42176;43.240;27.880;2023-02-27T07:02:38;99984.97;;;17.73;54.33
56270;BME280;42176;43.240;27.880;2023-02-27T07:05:04;99989.63;;;17.52;54.69
56270;BME280;42176;43.240;27.880;2023-02-27T07:07:31;99987.72;;;17.38;55.04
56270;BME280;42176;43.240;27.880;2023-02-27T07:09:57;99977.03;;;17.54;54.81
56270;BME280;42176;43.240;27.880;2023-02-27T07:12:22;99977.09;;;17.70;54.31
56270;BME280;42176;43.240;27.880;2023-02-27T07:14:48;99963.25;;;19.05;51.12
56270;BME280;42176;43.240;27.880;2023-02-27T07:17:13;99959.41;;;20.24;47.77
56270;BME280;42176;43.240;27.880;2023-02-27T07:19:39;99949.44;;;20.27;47.26
56270;BME280;42176;43.240;27.880;2023-02-27T07:22:04;99947.28;;;20.87;46.07
56270;BME280;42176;43.240;27.880;2023-02-27T07:24:29;99940.56;;;21.45;44.21
56270;BME280;42176;43.240;27.880;2023-02-27T07:26:55;99929.09;;;22.18;42.43
56270;BME280;42176;43.240;27.880;2023-02-27T07:29:21;99927.91;;;21.85;43.00
56270;BME280;42176;43.240;27.880;2023-02-27T07:31:47;99944.44;;;22.17;43.02
56270;BME280;42176;43.240;27.880;2023-02-27T07:34:12;99942.44;;;22.81;41.28
56270;BME280;42176;43.240;27.880;2023-02-27T07:36:39;99937.25;;;22.29;42.41
56270;BME280;42176;43.240;27.880;2023-02-27T07:39:05;99935.72;;;21.38;44.62
56270;BME280;42176;43.240;27.880;2023-02-27T07:41:33;99951.22;;;21.34;44.96
56270;BME280;42176;43.240;27.880;2023-02-27T07:43:58;99958.28;;;20.96;45.60
56270;BME280;42176;43.240;27.880;2023-02-27T07:46:23;99967.56;;;20.37;47.13
56270;BME280;42176;43.240;27.880;2023-02-27T07:48:51;99975.63;;;19.81;48.41
56270;BME280;42176;43.240;27.880;2023-02-27T07:51:17;99985.34;;;19.10;50.42
56270;BME280;42176;43.240;27.880;2023-02-27T07:53:42;99996.19;;;18.92;51.32
56270;BME280;42176;43.240;27.880;2023-02-27T07:56:08;100004.22;;;18.78;52.03
56270;BME280;42176;43.240;27.880;2023-02-27T07:58:33;100003.78;;;18.69;52.32
56270;BME280;42176;43.240;27.880;2023-02-27T08:00:59;100006.03;;;18.45;53.24
56270;BME280;42176;43.240;27.880;2023-02-27T08:03:24;100021.75;;;18.21;54.43
56270;BME280;42176;43.240;27.880;2023-02-27T08:05:50;100012.97;;;18.01;55.44
56270;BME280;42176;43.240;27.880;2023-02-27T08:08:16;100034.44;;;18.01;55.75
56270;BME280;42176;43.240;27.880;2023-02-27T08:10:41;100011.00;;;17.87;56.24
56270;BME280;42176;43.240;27.880;2023-02-27T08:13:06;100012.38;;;17.78;56.85
56270;BME280;42176;43.240;27.880;2023-02-27T08:15:32;100013.84;;;17.50;57.96
56270;BME280;42176;43.240;27.880;2023-02-27T08:17:58;100019.72;;;17.41;59.12
56270;BME280;42176;43.240;27.880;2023-02-27T08:20:23;100025.50;;;17.49;59.04
56270;BME280;42176;43.240;27.880;2023-02-27T08:22:49;100024.41;;;17.54;59.11
56270;BME280;42176;43.240;27.880;2023-02-27T08:25:15;100035.78;;;17.59;59.08
56270;BME280;42176;43.240;27.880;2023-02-27T08:27:40;100002.22;;;17.34;58.91
56270;BME280;42176;43.240;27.880;2023-02-27T08:30:09;100035.69;;;17.60;59.12
56270;BME280;42176;43.240;27.880;2023-02-27T08:32:35;100050.41;;;17.69;59.08
56270;BME280;42176;43.240;27.880;2023-02-27T08:35:00;100032.09;;;17.60;59.50
56270;BME280;42176;43.240;27.880;2023-02-27T08:37:26;100044.66;;;17.42;59.91
56270;BME280;42176;43.240;27.880;2023-02-27T08:39:52;100058.00;;;17.26;61.00
56270;BME280;42176;43.240;27.880;2023-02-27T08:42:17;100076.41;;;17.14;59.92
56270;BME280;42176;43.240;27.880;2023-02-27T08:44:43;100084.56;;;16.94;57.51
56270;BME280;42176;43.240;27.880;2023-02-27T08:47:08;100101.22;;;16.81;57.36
56270;BME280;42176;43.240;27.880;2023-02-27T08:49:34;100103.53;;;16.70;56.78
56270;BME280;42176;43.240;27.880;2023-02-27T08:51:59;100110.34;;;16.39;57.52
56270;BME280;42176;43.240;27.880;2023-02-27T08:54:25;100119.31;;;16.38;57.45
56270;BME280;42176;43.240;27.880;2023-02-27T08:56:51;100120.53;;;16.31;57.41
56270;BME280;42176;43.240;27.880;2023-02-27T08:59:16;100116.13;;;16.29;57.41
56270;BME280;42176;43.240;27.880;2023-02-27T09:01:42;100104.13;;;16.19;56.68
56270;BME280;42176;43.240;27.880;2023-02-27T09:04:08;100126.97;;;16.46;56.65
56270;BME280;42176;43.240;27.880;2023-02-27T09:06:35;100120.50;;;17.44;54.24
56270;BME280;42176;43.240;27.880;2023-02-27T09:09:01;100106.19;;;18.14;50.97
56270;BME280;42176;43.240;27.880;2023-02-27T09:11:27;100116.94;;;17.78;50.68
56270;BME280;42176;43.240;27.880;2023-02-27T09:13:53;100124.44;;;18.23;49.41
56270;BME280;42176;43.240;27.880;2023-02-27T09:16:20;100123.31;;;18.61;48.51
56270;BME280;42176;43.240;27.880;2023-02-27T09:18:46;100126.41;;;18.69;47.64
56270;BME280;42176;43.240;27.880;2023-02-27T09:21:12;100127.63;;;18.63;47.49
56270;BME280;42176;43.240;27.880;2023-02-27T09:23:38;100134.28;;;18.56;47.64
56270;BME280;42176;43.240;27.880;2023-02-27T09:26:04;100140.97;;;18.49;48.09
56270;BME280;42176;43.240;27.880;2023-02-27T09:28:31;100133.16;;;18.60;47.57
56270;BME280;42176;43.240;27.880;2023-02-27T09:31:04;100119.84;;;18.75;47.18
56270;BME280;42176;43.240;27.880;2023-02-27T09:33:31;100127.03;;;18.90;47.11
56270;BME280;42176;43.240;27.880;2023-02-27T09:35:56;100139.09;;;19.15;46.50
56270;BME280;42176;43.240;27.880;2023-02-27T09:38:22;100120.56;;;18.94;46.67
56270;BME280;42176;43.240;27.880;2023-02-27T09:40:49;100150.34;;;19.06;46.28
56270;BME280;42176;43.240;27.880;2023-02-27T09:43:20;100145.66;;;19.25;46.22
56270;BME280;42176;43.240;27.880;2023-02-27T09:45:51;100142.34;;;19.20;45.71
56270;BME280;42176;43.240;27.880;2023-02-27T09:48:42;100151.38;;;19.19;45.76
56270;BME280;42176;43.240;27.880;2023-02-27T09:51:13;100157.78;;;19.00;45.91
56270;BME280;42176;43.240;27.880;2023-02-27T09:53:42;100156.56;;;18.74;46.24
56270;BME280;42176;43.240;27.880;2023-02-27T09:57:02;100154.56;;;18.78;46.13
56270;BME280;42176;43.240;27.880;2023-02-27T10:02:12;100163.47;;;18.62;46.96
56270;BME280;42176;43.240;27.880;2023-02-27T10:04:48;100165.28;;;18.46;46.56
56270;BME280;42176;43.240;27.880;2023-02-27T10:09:59;100163.09;;;18.36;46.66
56270;BME280;42176;43.240;27.880;2023-02-27T10:15:46;100164.63;;;18.24;47.53
56270;BME280;42176;43.240;27.880;2023-02-27T10:18:20;100165.00;;;18.34;47.94
56270;BME280;42176;43.240;27.880;2023-02-27T10:20:52;100161.59;;;18.31;47.22
56270;BME280;42176;43.240;27.880;2023-02-27T10:23:26;100171.16;;;18.36;47.28
56270;BME280;42176;43.240;27.880;2023-02-27T10:25:54;100177.47;;;18.35;47.45
56270;BME280;42176;43.240;27.880;2023-02-27T10:28:21;100181.25;;;18.31;47.68
56270;BME280;42176;43.240;27.880;2023-02-27T10:30:50;100173.84;;;18.36;47.77
56270;BME280;42176;43.240;27.880;2023-02-27T10:33:38;100174.44;;;18.41;47.48
56270;BME280;42176;43.240;27.880;2023-02-27T10:36:04;100177.47;;;18.35;47.90
56270;BME280;42176;43.240;27.880;2023-02-27T10:38:41;100186.13;;;18.40;46.98
56270;BME280;42176;43.240;27.880;2023-02-27T10:41:14;100176.25;;;18.41;46.67
56270;BME280;42176;43.240;27.880;2023-02-27T10:43:41;100191.47;;;18.40;46.66
56270;BME280;42176;43.240;27.880;2023-02-27T10:46:28;100190.63;;;18.40;46.83
56270;BME280;42176;43.240;27.880;2023-02-27T10:48:57;100186.94;;;18.25;47.26
56270;BME280;42176;43.240;27.880;2023-02-27T10:51:32;100195.41;;;18.17;47.21
56270;BME280;42176;43.240;27.880;2023-02-27T10:56:40;100185.38;;;18.21;46.99
56270;BME280;42176;43.240;27.880;2023-02-27T10:59:20;100163.94;;;18.21;47.24
56270;BME280;42176;43.240;27.880;2023-02-27T11:01:58;100189.59;;;18.42;46.64
56270;BME280;42176;43.240;27.880;2023-02-27T11:04:28;100187.19;;;18.54;46.45
56270;BME280;42176;43.240;27.880;2023-02-27T11:06:54;100180.97;;;18.53;46.14
56270;BME280;42176;43.240;27.880;2023-02-27T11:11:49;100191.91;;;18.66;45.53
56270;BME280;42176;43.240;27.880;2023-02-27T11:14:31;100185.84;;;18.79;45.28
56270;BME280;42176;43.240;27.880;2023-02-27T11:16:59;100186.75;;;18.95;44.63
56270;BME280;42176;43.240;27.880;2023-02-27T11:19:35;100178.94;;;18.91;44.36
56270;BME280;42176;43.240;27.880;2023-02-27T11:24:40;100185.69;;;18.82;44.45
56270;BME280;42176;43.240;27.880;2023-02-27T11:29:56;100197.97;;;18.70;44.37
56270;BME280;42176;43.240;27.880;2023-02-27T11:32:22;100199.16;;;18.64;43.98
56270;BME280;42176;43.240;27.880;2023-02-27T11:34:50;100199.66;;;18.55;43.99
56270;BME280;42176;43.240;27.880;2023-02-27T11:37:27;100192.38;;;18.41;44.01
56270;BME280;42176;43.240;27.880;2023-02-27T11:42:40;100196.84;;;18.40;44.74
56270;BME280;42176;43.240;27.880;2023-02-27T11:45:32;100204.50;;;18.48;44.67
56270;BME280;42176;43.240;27.880;2023-02-27T11:48:09;100189.56;;;18.26;45.00
56270;BME280;42176;43.240;27.880;2023-02-27T11:56:55;100202.34;;;18.55;44.91
56270;BME280;42176;43.240;27.880;2023-02-27T12:05:20;100209.56;;;18.70;44.12
56270;BME280;42176;43.240;27.880;2023-02-27T12:07:58;100204.69;;;18.61;44.69
56270;BME280;42176;43.240;27.880;2023-02-27T12:10:27;100215.97;;;18.68;44.57
56270;BME280;42176;43.240;27.880;2023-02-27T12:13:02;100213.19;;;18.69;44.70
56270;BME280;42176;43.240;27.880;2023-02-27T12:15:47;100206.22;;;18.49;44.59
56270;BME280;42176;43.240;27.880;2023-02-27T12:18:37;100215.94;;;18.52;45.16
56270;BME280;42176;43.240;27.880;2023-02-27T12:26:04;100219.25;;;18.39;45.38
56270;BME280;42176;43.240;27.880;2023-02-27T12:28:40;100219.09;;;18.42;45.11
56270;BME280;42176;43.240;27.880;2023-02-27T12:34:15;100217.94;;;18.31;44.65
56270;BME280;42176;43.240;27.880;2023-02-27T12:36:43;100234.28;;;18.26;44.82
56270;BME280;42176;43.240;27.880;2023-02-27T12:39:20;100225.63;;;18.03;44.44
56270;BME280;42176;43.240;27.880;2023-02-27T12:50:20;100248.19;;;18.17;44.86
56270;BME280;42176;43.240;27.880;2023-02-27T12:55:46;100252.63;;;18.18;44.69
56270;BME280;42176;43.240;27.880;2023-02-27T13:01:02;100240.44;;;18.10;44.66
56270;BME280;42176;43.240;27.880;2023-02-27T13:03:55;100240.22;;;18.15;44.30
56270;BME280;42176;43.240;27.880;2023-02-27T13:06:48;100247.41;;;18.15;44.69
56270;BME280;42176;43.240;27.880;2023-02-27T13:15:13;100258.03;;;18.16;44.72
56270;BME280;42176;43.240;27.880;2023-02-27T13:17:48;100261.50;;;18.18;44.29
56270;BME280;42176;43.240;27.880;2023-02-27T13:20:49;100256.69;;;18.25;44.37
56270;BME280;42176;43.240;27.880;2023-02-27T13:23:32;100251.19;;;18.28;44.49
56270;BME280;42176;43.240;27.880;2023-02-27T13:26:00;100254.81;;;18.27;45.32
56270;BME280;42176;43.240;27.880;2023-02-27T13:28:30;100257.97;;;18.00;46.53
56270;BME280;42176;43.240;27.880;2023-02-27T13:36:18;100277.31;;;17.70;47.21
56270;BME280;42176;43.240;27.880;2023-02-27T13:38:47;100283.28;;;17.58;47.44
56270;BME280;42176;43.240;27.880;2023-02-27T13:57:05;100296.13;;;16.73;49.57
56270;BME280;42176;43.240;27.880;2023-02-27T13:59:38;100296.13;;;16.52;50.06
56270;BME280;42176;43.240;27.880;2023-02-27T14:04:45;100297.72;;;16.36;50.44
56270;BME280;42176;43.240;27.880;2023-02-27T14:07:17;100300.75;;;16.28;50.62
56270;BME280;42176;43.240;27.880;2023-02-27T14:09:46;100302.16;;;16.16;50.69
56270;BME280;42176;43.240;27.880;2023-02-27T14:14:53;100311.00;;;16.18;51.00
56270;BME280;42176;43.240;27.880;2023-02-27T14:20:12;100314.97;;;16.08;51.30
56270;BME280;42176;43.240;27.880;2023-02-27T14:22:42;100322.19;;;16.06;51.16
56270;BME280;42176;43.240;27.880;2023-02-27T14:25:33;100334.63;;;16.07;50.99
56270;BME280;42176;43.240;27.880;2023-02-27T14:28:00;100294.59;;;15.83;51.14
56270;BME280;42176;43.240;27.880;2023-02-27T14:30:35;100330.16;;;16.07;51.16
56270;BME280;42176;43.240;27.880;2023-02-27T14:33:10;100330.16;;;16.07;51.15
56270;BME280;42176;43.240;27.880;2023-02-27T14:35:37;100336.47;;;16.05;51.34
56270;BME280;42176;43.240;27.880;2023-02-27T14:38:09;100334.00;;;16.00;50.91
56270;BME280;42176;43.240;27.880;2023-02-27T14:40:38;100344.78;;;15.98;51.26
56270;BME280;42176;43.240;27.880;2023-02-27T14:43:23;100348.81;;;15.87;51.54
56270;BME280;42176;43.240;27.880;2023-02-27T14:45:53;100362.44;;;15.79;51.72
56270;BME280;42176;43.240;27.880;2023-02-27T14:48:26;100369.53;;;15.80;52.08
56270;BME280;42176;43.240;27.880;2023-02-27T14:50:53;100356.16;;;15.58;52.24
56270;BME280;42176;43.240;27.880;2023-02-27T14:53:24;100371.69;;;15.48;52.51
56270;BME280;42176;43.240;27.880;2023-02-27T14:55:55;100388.75;;;15.44;52.88
56270;BME280;42176;43.240;27.880;2023-02-27T14:58:21;100388.88;;;15.41;52.96
56270;BME280;42176;43.240;27.880;2023-02-27T15:03:18;100402.09;;;15.20;53.80
56270;BME280;42176;43.240;27.880;2023-02-27T15:05:47;100410.63;;;15.06;54.26
56270;BME280;42176;43.240;27.880;2023-02-27T15:08:22;100418.78;;;15.01;55.51
56270;BME280;42176;43.240;27.880;2023-02-27T15:10:49;100421.84;;;14.90;56.72
56270;BME280;42176;43.240;27.880;2023-02-27T15:13:29;100430.00;;;14.86;57.21
56270;BME280;42176;43.240;27.880;2023-02-27T15:19:18;100404.47;;;14.52;60.33
56270;BME280;42176;43.240;27.880;2023-02-27T15:21:48;100411.41;;;14.30;60.54
56270;BME280;42176;43.240;27.880;2023-02-27T15:24:32;100398.72;;;14.10;62.37
56270;BME280;42176;43.240;27.880;2023-02-27T15:27:04;100428.81;;;14.14;63.44
56270;BME280;42176;43.240;27.880;2023-02-27T15:29:46;100437.88;;;14.08;63.78
56270;BME280;42176;43.240;27.880;2023-02-27T15:34:49;100440.50;;;13.81;65.55
56270;BME280;42176;43.240;27.880;2023-02-27T15:37:26;100451.00;;;13.56;66.00
56270;BME280;42176;43.240;27.880;2023-02-27T15:39:54;100464.78;;;13.39;66.28
56270;BME280;42176;43.240;27.880;2023-02-27T15:42:24;100475.59;;;13.33;66.29
56270;BME280;42176;43.240;27.880;2023-02-27T15:44:50;100482.22;;;13.18;66.76